createdAt,value
2024-02-28T00:01:07.163Z,17.38
2024-02-28T00:03:35.706Z,19.55
2024-02-28T00:06:03.619Z,18.63
2024-02-28T00:08:32.817Z,18.92
2024-02-28T00:11:00.960Z,19.60
2024-02-28T00:13:28.791Z,17.52
2024-02-28T00:15:56.879Z,17.67
2024-02-28T00:18:24.830Z,16.45
2024-02-28T00:20:56.854Z,17.15
2024-02-28T00:23:24.705Z,16.60
2024-02-28T00:25:54.037Z,19.05
2024-02-28T00:28:23.051Z,16.95
2024-02-28T00:30:51.067Z,16.65
2024-02-28T00:33:18.950Z,14.50
2024-02-28T00:35:46.830Z,18.63
2024-02-28T00:38:14.770Z,16.48
2024-02-28T00:40:42.663Z,16.98
2024-02-28T00:43:11.851Z,15.20
2024-02-28T00:45:39.934Z,18.83
2024-02-28T00:48:08.962Z,17.80
2024-02-28T00:50:36.907Z,15.90
2024-02-28T00:53:05.102Z,15.07
2024-02-28T00:55:32.931Z,15.88
2024-02-28T00:58:00.792Z,15.68
2024-02-28T01:00:30.047Z,15.75
2024-02-28T01:02:57.974Z,14.13
2024-02-28T01:05:27.210Z,15.85
2024-02-28T01:07:55.405Z,16.17
2024-02-28T01:10:23.526Z,16.15
2024-02-28T01:12:51.555Z,15.18
2024-02-28T01:15:20.121Z,13.85
2024-02-28T01:17:49.405Z,15.52
2024-02-28T01:20:17.597Z,18.67
2024-02-28T01:22:46.023Z,17.13
2024-02-28T01:25:14.076Z,17.30
2024-02-28T01:27:41.938Z,16.63
2024-02-28T01:30:10.421Z,17.17
2024-02-28T01:32:38.358Z,16.90
2024-02-28T01:35:10.512Z,18.40
2024-02-28T01:37:38.445Z,15.52
2024-02-28T01:40:07.461Z,17.88
2024-02-28T01:42:35.368Z,16.63
2024-02-28T01:45:03.317Z,15.60
2024-02-28T01:47:31.665Z,15.93
2024-02-28T01:50:00.167Z,16.75
2024-02-28T01:52:29.435Z,16.55
2024-02-28T01:54:57.704Z,15.90
2024-02-28T01:57:25.688Z,16.25
2024-02-28T01:59:55.791Z,17.23
2024-02-28T02:02:23.848Z,16.02
2024-02-28T02:04:54.055Z,15.57
2024-02-28T02:07:22.055Z,15.65
2024-02-28T02:09:51.387Z,15.30
2024-02-28T02:12:19.433Z,14.38
2024-02-28T02:14:49.997Z,15.98
2024-02-28T02:17:19.577Z,15.48
2024-02-28T02:19:47.724Z,16.20
2024-02-28T02:22:16.574Z,17.30
2024-02-28T02:24:46.013Z,15.80
2024-02-28T02:27:13.950Z,16.98
2024-02-28T02:29:41.767Z,16.90
2024-02-28T02:32:09.677Z,16.48
2024-02-28T02:34:37.645Z,15.65
2024-02-28T02:37:06.145Z,15.05
2024-02-28T02:39:34.144Z,15.90
2024-02-28T02:42:03.458Z,13.38
2024-02-28T02:44:31.906Z,16.38
2024-02-28T02:46:59.704Z,12.93
2024-02-28T02:49:27.542Z,13.30
2024-02-28T02:51:55.486Z,14.98
2024-02-28T02:54:23.329Z,15.35
2024-02-28T02:56:51.212Z,14.73
2024-02-28T02:59:22.605Z,16.95
2024-02-28T03:01:52.238Z,15.88
2024-02-28T03:04:20.108Z,14.73
2024-02-28T03:06:48.039Z,15.93
2024-02-28T03:09:16.062Z,16.20
2024-02-28T03:11:44.207Z,16.77
2024-02-28T03:14:12.323Z,17.80
2024-02-28T03:16:44.423Z,19.60
2024-02-28T03:19:12.944Z,17.20
2024-02-28T03:21:40.888Z,17.40
2024-02-28T03:24:09.033Z,16.85
2024-02-28T03:26:36.851Z,16.58
2024-02-28T03:29:05.095Z,16.30
2024-02-28T03:31:33.045Z,16.40
2024-02-28T03:34:02.605Z,16.00
2024-02-28T03:36:31.231Z,15.48
2024-02-28T03:38:59.128Z,16.73
2024-02-28T03:41:26.972Z,16.80
2024-02-28T03:43:55.124Z,16.20
2024-02-28T03:46:23.609Z,18.63
2024-02-28T03:48:51.617Z,15.85
2024-02-28T03:51:20.897Z,16.23
2024-02-28T03:53:48.967Z,17.67
2024-02-28T03:56:26.119Z,15.48
2024-02-28T03:58:54.825Z,19.55
2024-02-28T04:01:22.761Z,19.48
2024-02-28T04:03:50.813Z,17.45
2024-02-28T04:06:20.240Z,18.35
2024-02-28T04:08:48.628Z,18.27
2024-02-28T04:11:16.500Z,20.15
2024-02-28T04:13:44.398Z,18.10
2024-02-28T04:16:12.301Z,20.67
2024-02-28T04:18:40.237Z,22.60
2024-02-28T04:21:08.025Z,22.63
2024-02-28T04:23:39.267Z,25.15
2024-02-28T04:26:07.106Z,22.95
2024-02-28T04:28:34.914Z,21.55
2024-02-28T04:31:02.798Z,21.52
2024-02-28T04:33:30.697Z,24.65
2024-02-28T04:35:59.022Z,23.20
2024-02-28T04:38:26.883Z,21.45
2024-02-28T04:40:56.180Z,21.20
2024-02-28T04:43:23.995Z,23.98
2024-02-28T04:45:51.904Z,23.75
2024-02-28T04:48:19.795Z,23.02
2024-02-28T04:50:47.680Z,22.75
2024-02-28T04:53:15.531Z,21.00
2024-02-28T04:55:43.329Z,23.17
2024-02-28T04:58:12.594Z,25.00
2024-02-28T05:00:40.749Z,24.75
2024-02-28T05:03:09.061Z,24.10
2024-02-28T05:05:36.913Z,22.45
2024-02-28T05:08:05.653Z,24.65
2024-02-28T05:10:35.251Z,24.20
2024-02-28T05:13:05.216Z,22.35
2024-02-28T05:15:34.527Z,21.70
2024-02-28T05:18:02.656Z,23.30
2024-02-28T05:20:30.503Z,24.00
2024-02-28T05:22:58.345Z,25.80
2024-02-28T05:25:26.101Z,24.42
2024-02-28T05:27:53.982Z,25.10
2024-02-28T05:30:22.397Z,25.30
2024-02-28T05:32:52.075Z,24.70
2024-02-28T05:35:19.035Z,24.30
2024-02-28T05:37:47.738Z,22.60
2024-02-28T05:40:15.601Z,24.75
2024-02-28T05:42:44.189Z,23.85
2024-02-28T05:45:13.949Z,24.15
2024-02-28T05:47:41.886Z,22.17
2024-02-28T05:50:12.268Z,22.50
2024-02-28T05:52:40.204Z,25.38
2024-02-28T05:55:08.714Z,22.13
2024-02-28T05:57:36.550Z,24.10
2024-02-28T06:00:11.037Z,22.58
2024-02-28T06:02:43.017Z,24.67
2024-02-28T06:05:12.242Z,23.23
2024-02-28T06:07:40.039Z,25.90
2024-02-28T06:10:09.268Z,25.13
2024-02-28T06:12:37.091Z,23.65
2024-02-28T06:15:07.905Z,25.17
2024-02-28T06:17:36.001Z,23.42
2024-02-28T06:20:04.654Z,22.42
2024-02-28T06:22:33.854Z,22.05
2024-02-28T06:25:01.716Z,22.88
2024-02-28T06:27:29.788Z,22.33
2024-02-28T06:29:57.543Z,21.45
2024-02-28T06:32:26.128Z,24.40
2024-02-28T06:34:54.650Z,24.55
2024-02-28T06:37:22.441Z,23.60
2024-02-28T06:39:51.656Z,22.33
2024-02-28T06:42:19.555Z,22.05
2024-02-28T06:44:47.537Z,22.55
2024-02-28T06:47:15.539Z,21.17
2024-02-28T06:49:43.799Z,20.25
2024-02-28T06:52:11.774Z,18.33
2024-02-28T06:54:39.694Z,19.15
2024-02-28T06:57:08.994Z,21.40
2024-02-28T06:59:37.022Z,20.63
2024-02-28T07:02:05.939Z,19.88
2024-02-28T07:04:33.771Z,18.75
2024-02-28T07:07:02.359Z,19.75
2024-02-28T07:09:32.319Z,18.90
2024-02-28T07:12:00.219Z,18.50
2024-02-28T07:14:29.371Z,19.08
2024-02-28T07:16:57.503Z,19.83
2024-02-28T07:19:25.496Z,20.60
2024-02-28T07:21:53.355Z,20.50
2024-02-28T07:24:21.239Z,19.05
2024-02-28T07:26:50.279Z,20.80
2024-02-28T07:29:18.922Z,17.25
2024-02-28T07:31:48.102Z,18.08
2024-02-28T07:34:16.009Z,18.60
2024-02-28T07:36:44.718Z,18.88
2024-02-28T07:39:13.944Z,17.98
2024-02-28T07:41:42.707Z,17.17
2024-02-28T07:44:11.895Z,17.83
2024-02-28T07:46:39.812Z,20.15
2024-02-28T07:49:09.150Z,17.92
2024-02-28T07:51:37.051Z,17.38
2024-02-28T07:54:05.208Z,17.83
2024-02-28T07:56:33.095Z,18.25
2024-02-28T07:59:00.964Z,18.08
2024-02-28T08:01:28.967Z,17.60
2024-02-28T08:03:57.134Z,18.55
2024-02-28T08:06:26.744Z,19.77
2024-02-28T08:08:54.612Z,18.65
2024-02-28T08:11:22.586Z,17.33
2024-02-28T08:13:50.425Z,18.63
2024-02-28T08:16:18.459Z,18.80
2024-02-28T08:18:46.497Z,19.00
2024-02-28T08:21:14.314Z,18.58
2024-02-28T08:23:43.597Z,19.27
2024-02-28T08:26:11.630Z,17.98
2024-02-28T08:28:40.143Z,17.65
2024-02-28T08:31:08.198Z,19.85
2024-02-28T08:33:36.180Z,21.00
2024-02-28T08:36:04.444Z,20.00
2024-02-28T08:38:32.230Z,18.27
2024-02-28T08:41:01.828Z,20.52
2024-02-28T08:43:29.736Z,19.65
2024-02-28T08:45:58.194Z,20.42
2024-02-28T08:48:26.127Z,19.23
2024-02-28T08:50:54.128Z,20.75
2024-02-28T08:53:21.934Z,19.35
2024-02-28T08:55:50.737Z,19.08
2024-02-28T08:58:20.225Z,18.85
2024-02-28T09:00:48.174Z,19.40
2024-02-28T09:03:16.494Z,18.77
2024-02-28T09:05:44.686Z,20.38
2024-02-28T09:08:14.460Z,18.17
2024-02-28T09:10:43.183Z,19.98
2024-02-28T09:13:13.381Z,18.77
2024-02-28T09:15:42.847Z,17.58
2024-02-28T09:18:11.107Z,17.50
2024-02-28T09:20:38.972Z,22.08
2024-02-28T09:23:08.021Z,20.13
2024-02-28T09:25:36.755Z,19.02
2024-02-28T09:28:05.039Z,20.17
2024-02-28T09:30:40.158Z,19.77
2024-02-28T09:33:15.407Z,20.08
2024-02-28T09:35:43.842Z,20.55
2024-02-28T09:38:12.657Z,20.02
2024-02-28T09:40:40.751Z,21.55
2024-02-28T09:43:18.180Z,20.73
2024-02-28T09:45:48.788Z,20.65
2024-02-28T09:48:19.056Z,20.67
2024-02-28T09:50:48.017Z,21.70
2024-02-28T09:53:15.974Z,20.90
2024-02-28T09:55:44.711Z,22.80
2024-02-28T09:58:13.414Z,22.77
2024-02-28T10:00:45.204Z,21.77
2024-02-28T10:03:15.433Z,24.42
2024-02-28T10:05:45.461Z,22.38
2024-02-28T10:08:14.651Z,23.98
2024-02-28T10:10:48.267Z,20.92
2024-02-28T10:13:17.733Z,21.23
2024-02-28T10:15:45.893Z,24.98
2024-02-28T10:18:13.875Z,24.50
2024-02-28T10:20:41.709Z,22.58
2024-02-28T10:23:11.075Z,22.92
2024-02-28T10:25:51.916Z,25.70
2024-02-28T10:28:24.447Z,23.63
2024-02-28T10:30:53.058Z,21.80
2024-02-28T10:33:21.087Z,21.42
2024-02-28T10:35:54.713Z,22.27
2024-02-28T10:38:25.353Z,22.80
2024-02-28T10:40:54.892Z,22.15
2024-02-28T10:43:23.468Z,21.30
2024-02-28T10:46:13.414Z,23.48
2024-02-28T10:48:41.484Z,23.77
2024-02-28T10:51:12.263Z,23.65
2024-02-28T10:53:44.359Z,22.20
2024-02-28T10:56:13.620Z,22.83
2024-02-28T10:58:51.919Z,24.35
2024-02-28T11:01:21.152Z,25.23
2024-02-28T11:03:51.412Z,23.20
2024-02-28T11:06:21.797Z,23.90
2024-02-28T11:08:55.280Z,22.63
2024-02-28T11:11:24.638Z,25.25
2024-02-28T11:13:56.552Z,25.92
2024-02-28T11:16:31.732Z,24.38
2024-02-28T11:19:00.228Z,23.08
2024-02-28T11:21:29.432Z,26.15
2024-02-28T11:24:01.410Z,25.42
2024-02-28T11:26:29.973Z,25.35
2024-02-28T11:28:58.050Z,25.00
2024-02-28T11:31:25.995Z,23.83
2024-02-28T11:33:53.959Z,24.73
2024-02-28T11:36:22.675Z,24.90
2024-02-28T11:38:51.265Z,25.10
2024-02-28T11:41:29.838Z,30.00
2024-02-28T11:43:57.764Z,25.85
2024-02-28T11:46:26.175Z,25.70
2024-02-28T11:48:54.869Z,23.83
2024-02-28T11:51:22.795Z,21.98
2024-02-28T11:53:50.696Z,25.92
2024-02-28T11:56:22.212Z,23.80
2024-02-28T11:58:55.321Z,26.10
2024-02-28T12:01:41.082Z,23.92
2024-02-28T12:04:09.615Z,24.63
2024-02-28T12:06:39.418Z,24.10
2024-02-28T12:09:10.064Z,24.00
2024-02-28T12:11:38.696Z,24.63
2024-02-28T12:14:10.395Z,26.45
2024-02-28T12:16:39.592Z,25.38
2024-02-28T12:19:10.976Z,23.77
2024-02-28T12:21:39.193Z,22.75
2024-02-28T12:24:10.432Z,21.85
2024-02-28T12:26:38.568Z,20.83
2024-02-28T12:29:08.196Z,20.75
2024-02-28T12:31:37.056Z,22.33
2024-02-28T12:34:05.960Z,23.60
2024-02-28T12:36:35.290Z,23.17
2024-02-28T12:39:03.674Z,23.95
2024-02-28T12:41:31.596Z,23.45
2024-02-28T12:43:59.532Z,22.13
2024-02-28T12:46:28.844Z,24.30
2024-02-28T12:48:56.812Z,26.73
2024-02-28T12:51:39.380Z,24.58
2024-02-28T12:54:08.804Z,23.30
2024-02-28T12:56:37.604Z,25.17
2024-02-28T12:59:05.552Z,24.40
2024-02-28T13:01:35.651Z,21.88
2024-02-28T13:04:03.823Z,23.05
2024-02-28T13:06:32.139Z,24.38
2024-02-28T13:09:00.126Z,24.42
2024-02-28T13:11:28.319Z,23.50
2024-02-28T13:13:56.230Z,22.98
2024-02-28T13:16:24.856Z,23.35
2024-02-28T13:18:54.188Z,23.20
2024-02-28T13:21:22.330Z,23.45
2024-02-28T13:23:51.428Z,23.67
2024-02-28T13:26:20.198Z,23.92
2024-02-28T13:28:50.585Z,24.17
2024-02-28T13:31:20.872Z,22.00
2024-02-28T13:33:49.997Z,23.30
2024-02-28T13:36:19.919Z,21.33
2024-02-28T13:38:48.019Z,22.27
2024-02-28T13:41:17.593Z,21.13
2024-02-28T13:43:45.694Z,22.23
2024-02-28T13:46:15.579Z,20.52
2024-02-28T13:48:44.083Z,20.80
2024-02-28T13:51:13.023Z,22.15
2024-02-28T13:53:42.251Z,22.02
2024-02-28T13:56:10.236Z,22.33
2024-02-28T13:58:43.015Z,21.77
2024-02-28T14:01:17.241Z,20.60
2024-02-28T14:03:45.231Z,22.48
2024-02-28T14:06:13.124Z,21.17
2024-02-28T14:08:44.072Z,21.67
2024-02-28T14:11:12.406Z,21.40
2024-02-28T14:13:41.560Z,22.10
2024-02-28T14:16:09.889Z,21.17
2024-02-28T14:18:37.875Z,22.33
2024-02-28T14:21:08.244Z,22.63
2024-02-28T14:23:36.670Z,20.10
2024-02-28T14:26:06.088Z,22.23
2024-02-28T14:28:34.089Z,21.05
2024-02-28T14:31:03.043Z,22.70
2024-02-28T14:33:31.252Z,22.52
2024-02-28T14:36:01.688Z,23.80
2024-02-28T14:38:29.614Z,21.33
2024-02-28T14:40:58.297Z,20.88
2024-02-28T14:43:31.026Z,19.48
2024-02-28T14:45:59.423Z,19.48
2024-02-28T14:48:27.285Z,20.92
2024-02-28T14:50:55.508Z,20.33
2024-02-28T14:53:24.631Z,20.35
2024-02-28T14:55:52.758Z,19.30
2024-02-28T14:58:20.703Z,26.95
2024-02-28T15:00:50.617Z,21.27
2024-02-28T15:03:18.692Z,21.42
2024-02-28T15:05:46.842Z,20.95
2024-02-28T15:08:14.755Z,20.55
2024-02-28T15:10:42.638Z,21.70
2024-02-28T15:13:13.325Z,21.35
2024-02-28T15:15:42.868Z,20.20
2024-02-28T15:18:13.367Z,19.92
2024-02-28T15:20:41.538Z,21.85
2024-02-28T15:23:09.704Z,21.27
2024-02-28T15:25:37.829Z,20.50
2024-02-28T15:28:06.663Z,21.55
2024-02-28T15:30:34.782Z,19.50
2024-02-28T15:33:02.862Z,20.38
2024-02-28T15:35:32.792Z,20.38
2024-02-28T15:38:00.767Z,20.20
2024-02-28T15:40:29.378Z,20.58
2024-02-28T15:42:59.479Z,18.60
2024-02-28T15:45:27.614Z,19.20
2024-02-28T15:47:55.598Z,20.30
2024-02-28T15:50:24.426Z,19.83
2024-02-28T15:52:54.862Z,18.45
2024-02-28T15:55:23.915Z,20.10
2024-02-28T15:57:52.130Z,17.98
2024-02-28T16:00:21.063Z,19.02
2024-02-28T16:02:49.096Z,19.92
2024-02-28T16:05:17.273Z,19.55
2024-02-28T16:07:46.891Z,19.60
2024-02-28T16:10:16.592Z,18.38
2024-02-28T16:12:44.638Z,19.65
2024-02-28T16:15:12.932Z,19.98
2024-02-28T16:17:41.459Z,20.08
2024-02-28T16:20:10.181Z,18.38
2024-02-28T16:22:38.043Z,19.33
2024-02-28T16:25:07.615Z,20.27
2024-02-28T16:27:37.405Z,18.30
2024-02-28T16:30:07.715Z,18.63
2024-02-28T16:32:36.887Z,20.83
2024-02-28T16:35:05.586Z,19.92
2024-02-28T16:37:33.428Z,21.15
2024-02-28T16:40:01.464Z,20.40
2024-02-28T16:42:31.586Z,19.00
2024-02-28T16:45:00.908Z,19.25
2024-02-28T16:47:29.658Z,20.80
2024-02-28T16:49:58.178Z,18.50
2024-02-28T16:52:27.201Z,18.25
2024-02-28T16:54:55.118Z,18.55
2024-02-28T16:57:23.094Z,17.73
2024-02-28T16:59:51.140Z,18.38
2024-02-28T17:02:20.362Z,19.25
2024-02-28T17:04:48.190Z,17.80
2024-02-28T17:07:20.504Z,21.90
2024-02-28T17:09:48.566Z,21.08
2024-02-28T17:12:16.793Z,19.02
2024-02-28T17:14:44.801Z,20.20
2024-02-28T17:17:13.477Z,20.40
2024-02-28T17:19:42.831Z,20.88
2024-02-28T17:22:10.740Z,18.63
2024-02-28T17:24:38.636Z,20.05
2024-02-28T17:27:08.545Z,20.48
2024-02-28T17:29:37.068Z,20.33
2024-02-28T17:32:05.801Z,19.92
2024-02-28T17:34:34.515Z,19.95
2024-02-28T17:37:04.127Z,21.08
2024-02-28T17:39:32.058Z,19.08
2024-02-28T17:42:00.172Z,18.10
2024-02-28T17:44:28.350Z,20.13
2024-02-28T17:46:56.619Z,19.52
2024-02-28T17:49:25.893Z,19.45
2024-02-28T17:51:54.855Z,19.25
2024-02-28T17:54:25.401Z,21.33
2024-02-28T17:56:54.757Z,19.42
2024-02-28T17:59:22.703Z,20.05
2024-02-28T18:01:50.961Z,22.00
2024-02-28T18:04:18.888Z,19.42
2024-02-28T18:06:46.849Z,20.60
2024-02-28T18:09:19.249Z,18.35
2024-02-28T18:11:50.143Z,20.40
2024-02-28T18:14:20.723Z,19.90
2024-02-28T18:16:48.629Z,19.92
2024-02-28T18:19:18.802Z,19.67
2024-02-28T18:21:47.032Z,20.45
2024-02-28T18:24:15.528Z,20.55
2024-02-28T18:26:44.148Z,20.35
2024-02-28T18:29:13.643Z,20.52
2024-02-28T18:31:41.540Z,18.65
2024-02-28T18:34:09.555Z,19.20
2024-02-28T18:36:37.907Z,17.92
2024-02-28T18:39:05.814Z,18.77
2024-02-28T18:41:33.652Z,16.48
2024-02-28T18:44:01.628Z,20.38
2024-02-28T18:46:31.519Z,21.08
2024-02-28T18:48:59.634Z,19.48
2024-02-28T18:51:28.342Z,19.38
2024-02-28T18:53:56.434Z,18.80
2024-02-28T18:56:24.706Z,20.10
2024-02-28T18:58:52.558Z,21.15
2024-02-28T19:01:21.112Z,20.95
2024-02-28T19:03:50.983Z,22.10
2024-02-28T19:06:19.257Z,23.63
2024-02-28T19:08:47.423Z,20.05
2024-02-28T19:11:15.389Z,21.10
2024-02-28T19:13:43.749Z,28.42
2024-02-28T19:16:11.692Z,26.65
2024-02-28T19:18:41.204Z,22.30
2024-02-28T19:21:10.636Z,25.48
2024-02-28T19:23:41.699Z,24.60
2024-02-28T19:26:09.802Z,23.15
2024-02-28T19:28:37.624Z,21.95
2024-02-28T19:31:05.872Z,21.23
2024-02-28T19:33:37.078Z,24.00
2024-02-28T19:36:06.227Z,28.38
2024-02-28T19:38:35.960Z,26.15
2024-02-28T19:41:05.076Z,26.75
2024-02-28T19:43:33.448Z,29.20
2024-02-28T19:46:01.914Z,27.65
2024-02-28T19:48:29.987Z,27.52
2024-02-28T19:50:57.921Z,25.48
2024-02-28T19:53:26.033Z,25.33
2024-02-28T19:55:55.342Z,26.65
2024-02-28T19:58:23.229Z,22.15
2024-02-28T20:00:51.326Z,26.00
2024-02-28T20:03:19.901Z,23.77
2024-02-28T20:05:48.178Z,25.48
2024-02-28T20:08:16.186Z,26.67
2024-02-28T20:10:44.217Z,28.35
2024-02-28T20:13:14.847Z,27.02
2024-02-28T20:15:43.120Z,27.63
2024-02-28T20:18:11.300Z,25.80
2024-02-28T20:20:39.498Z,22.17
2024-02-28T20:23:07.316Z,22.63
2024-02-28T20:25:35.363Z,20.65
2024-02-28T20:28:05.513Z,18.67
2024-02-28T20:30:35.216Z,17.60
2024-02-28T20:33:03.406Z,18.73
2024-02-28T20:35:33.033Z,16.45
2024-02-28T20:38:01.226Z,15.63
2024-02-28T20:40:29.698Z,15.95
2024-02-28T20:42:58.528Z,16.50
2024-02-28T20:45:26.634Z,16.00
2024-02-28T20:47:57.613Z,15.45
2024-02-28T20:50:26.226Z,14.95
2024-02-28T20:52:54.344Z,15.77
2024-02-28T20:55:26.190Z,16.13
2024-02-28T20:57:54.145Z,15.82
2024-02-28T21:00:22.790Z,14.00
2024-02-28T21:02:51.158Z,14.73
2024-02-28T21:05:21.033Z,15.38
2024-02-28T21:07:53.254Z,14.20
2024-02-28T21:10:22.382Z,14.02
2024-02-28T21:12:50.488Z,14.88
2024-02-28T21:15:18.638Z,14.60
2024-02-28T21:17:46.629Z,14.07
2024-02-28T21:20:14.834Z,13.13
2024-02-28T21:22:44.065Z,15.38
2024-02-28T21:25:12.377Z,14.73
2024-02-28T21:27:40.581Z,13.88
2024-02-28T21:30:10.672Z,11.18
2024-02-28T21:32:40.397Z,12.65
2024-02-28T21:35:09.660Z,13.43
2024-02-28T21:37:37.719Z,12.00
2024-02-28T21:40:08.850Z,11.60
2024-02-28T21:42:36.975Z,11.75
2024-02-28T21:45:05.540Z,11.65
2024-02-28T21:47:33.472Z,10.93
2024-02-28T21:50:01.386Z,9.90
2024-02-28T21:52:29.386Z,10.65
2024-02-28T21:54:58.251Z,10.07
2024-02-28T21:57:27.620Z,10.20
2024-02-28T21:59:55.451Z,10.35
2024-02-28T22:02:23.343Z,9.70
2024-02-28T22:04:51.222Z,9.50
2024-02-28T22:07:19.107Z,10.05
2024-02-28T22:09:47.005Z,8.57
2024-02-28T22:12:15.241Z,9.02
2024-02-28T22:14:44.519Z,8.70
2024-02-28T22:17:12.422Z,8.82
2024-02-28T22:19:40.358Z,8.48
2024-02-28T22:22:08.737Z,9.23
2024-02-28T22:24:36.720Z,8.82
2024-02-28T22:27:05.908Z,9.50
2024-02-28T22:29:34.432Z,8.60
2024-02-28T22:32:03.880Z,7.72
2024-02-28T22:34:31.719Z,7.57
2024-02-28T22:36:59.609Z,7.35
2024-02-28T22:39:28.432Z,7.40
2024-02-28T22:41:57.946Z,6.82
2024-02-28T22:44:25.883Z,6.60
2024-02-28T22:46:54.097Z,6.70
2024-02-28T22:49:23.411Z,6.82
2024-02-28T22:51:51.556Z,6.10
2024-02-28T22:54:19.580Z,7.15
2024-02-28T22:56:48.610Z,6.05
2024-02-28T22:59:18.320Z,6.72
2024-02-28T23:01:47.156Z,5.97
2024-02-28T23:04:16.914Z,7.15
2024-02-28T23:06:46.157Z,6.15
2024-02-28T23:09:15.155Z,5.50
2024-02-28T23:11:43.332Z,5.95
2024-02-28T23:14:12.779Z,5.10
2024-02-28T23:16:40.829Z,5.88
2024-02-28T23:19:09.365Z,5.50
2024-02-28T23:21:38.812Z,5.53
2024-02-28T23:24:09.037Z,5.50
2024-02-28T23:26:37.483Z,5.05
2024-02-28T23:29:05.555Z,4.78
2024-02-28T23:31:33.452Z,4.82
2024-02-28T23:34:01.277Z,4.90
2024-02-28T23:36:29.206Z,5.32
2024-02-28T23:38:57.068Z,5.10
2024-02-28T23:41:26.667Z,5.53
2024-02-28T23:43:57.467Z,5.65
2024-02-28T23:46:26.341Z,4.95
2024-02-28T23:48:54.176Z,6.20
2024-02-28T23:51:22.100Z,5.68
2024-02-28T23:53:50.067Z,5.50
2024-02-28T23:56:17.963Z,5.88
2024-02-28T23:58:47.220Z,5.82
